createdAt,value
2017-11-25T00:01:26.763Z,23.17
2017-11-25T00:03:54.956Z,21.17
2017-11-25T00:06:23.924Z,23.63
2017-11-25T00:08:52.106Z,28.00
2017-11-25T00:11:20.329Z,20.27
2017-11-25T00:13:48.545Z,21.30
2017-11-25T00:16:16.737Z,19.33
2017-11-25T00:18:44.902Z,22.97
2017-11-25T00:21:13.078Z,21.70
2017-11-25T00:23:41.268Z,19.30
2017-11-25T00:26:10.227Z,20.17
2017-11-25T00:28:38.450Z,19.30
2017-11-25T00:31:07.388Z,21.90
2017-11-25T00:33:35.569Z,22.60
2017-11-25T00:36:03.769Z,22.10
2017-11-25T00:38:31.940Z,21.27
2017-11-25T00:41:00.124Z,20.03
2017-11-25T00:43:28.304Z,19.90
2017-11-25T00:45:57.351Z,18.03
2017-11-25T00:48:25.529Z,19.77
2017-11-25T00:50:53.760Z,26.23
2017-11-25T00:53:22.741Z,28.30
2017-11-25T00:55:50.914Z,27.30
2017-11-25T00:58:19.104Z,20.13
2017-11-25T01:00:48.052Z,17.63
2017-11-25T01:03:16.232Z,18.70
2017-11-25T01:05:44.458Z,18.37
2017-11-25T01:08:12.680Z,17.07
2017-11-25T01:10:40.880Z,17.33
2017-11-25T01:13:09.071Z,16.50
2017-11-25T01:15:38.035Z,21.77
2017-11-25T01:18:06.283Z,22.40
2017-11-25T01:20:34.479Z,23.60
2017-11-25T01:23:04.189Z,22.70
2017-11-25T01:25:32.370Z,22.83
2017-11-25T01:28:00.576Z,22.53
2017-11-25T01:30:29.508Z,24.17
2017-11-25T01:32:57.696Z,29.10
2017-11-25T01:35:25.867Z,28.00
2017-11-25T01:37:54.081Z,27.13
2017-11-25T01:40:23.064Z,27.57
2017-11-25T01:42:51.236Z,31.53
2017-11-25T01:45:19.408Z,30.53
2017-11-25T01:47:47.578Z,31.57
2017-11-25T01:50:15.814Z,26.07
2017-11-25T01:52:44.013Z,26.30
2017-11-25T01:55:12.980Z,25.93
2017-11-25T01:57:41.228Z,22.90
2017-11-25T02:00:10.221Z,21.70
2017-11-25T02:02:39.163Z,20.03
2017-11-25T02:05:07.354Z,19.93
2017-11-25T02:07:35.540Z,20.27
2017-11-25T02:10:03.747Z,21.27
2017-11-25T02:12:32.685Z,21.27
2017-11-25T02:15:00.860Z,20.47
2017-11-25T02:17:29.045Z,18.47
2017-11-25T02:19:57.223Z,18.80
2017-11-25T02:22:25.431Z,17.10
2017-11-25T02:24:54.391Z,18.40
2017-11-25T02:27:22.561Z,19.43
2017-11-25T02:29:50.745Z,16.60
2017-11-25T02:32:18.938Z,16.43
2017-11-25T02:34:47.900Z,18.77
2017-11-25T02:37:16.082Z,18.70
2017-11-25T02:39:44.266Z,17.63
2017-11-25T02:42:12.440Z,18.23
2017-11-25T02:44:40.625Z,16.17
2017-11-25T02:47:08.817Z,17.40
2017-11-25T02:49:37.792Z,17.67
2017-11-25T02:52:05.967Z,16.87
2017-11-25T02:54:34.140Z,17.13
2017-11-25T02:57:02.342Z,19.13
2017-11-25T02:59:31.306Z,19.07
2017-11-25T03:01:59.472Z,17.17
2017-11-25T03:04:27.656Z,17.43
2017-11-25T03:06:55.833Z,17.20
2017-11-25T03:09:24.004Z,16.80
2017-11-25T03:11:52.177Z,16.90
2017-11-25T03:14:20.380Z,17.13
2017-11-25T03:16:49.319Z,16.77
2017-11-25T03:19:17.502Z,15.80
2017-11-25T03:21:45.695Z,17.27
2017-11-25T03:24:13.871Z,16.67
2017-11-25T03:26:42.057Z,15.43
2017-11-25T03:29:11.016Z,17.73
2017-11-25T03:31:39.192Z,15.57
2017-11-25T03:34:07.369Z,15.60
2017-11-25T03:36:35.569Z,14.90
2017-11-25T03:39:03.867Z,16.53
2017-11-25T03:41:32.044Z,14.80
2017-11-25T03:44:00.980Z,13.97
2017-11-25T03:46:29.161Z,13.10
2017-11-25T03:48:57.378Z,12.73
2017-11-25T03:51:26.350Z,13.33
2017-11-25T03:53:54.541Z,14.60
2017-11-25T03:56:23.485Z,14.07
2017-11-25T03:58:51.692Z,13.20
2017-11-25T04:01:19.871Z,15.27
2017-11-25T04:03:48.045Z,11.90
2017-11-25T04:06:16.222Z,13.47
2017-11-25T04:08:44.415Z,13.30
2017-11-25T04:11:13.368Z,13.90
2017-11-25T04:13:41.562Z,13.07
2017-11-25T04:16:09.775Z,14.77
2017-11-25T04:18:37.941Z,14.90
2017-11-25T04:21:06.131Z,13.30
2017-11-25T04:23:34.293Z,14.07
2017-11-25T04:26:02.472Z,14.50
2017-11-25T04:28:30.673Z,15.30
2017-11-25T04:30:58.853Z,13.87
2017-11-25T04:33:27.021Z,14.50
2017-11-25T04:35:55.200Z,14.07
2017-11-25T04:38:23.378Z,13.37
2017-11-25T04:40:51.580Z,16.47
2017-11-25T04:43:19.781Z,14.27
2017-11-25T04:45:47.976Z,14.20
2017-11-25T04:48:16.136Z,14.77
2017-11-25T04:50:44.343Z,14.63
2017-11-25T04:53:12.546Z,14.10
2017-11-25T04:55:41.481Z,14.90
2017-11-25T04:58:09.668Z,14.17
2017-11-25T05:00:38.053Z,14.03
2017-11-25T05:03:06.236Z,14.73
2017-11-25T05:05:34.451Z,16.50
2017-11-25T05:08:02.643Z,14.43
2017-11-25T05:10:31.570Z,14.17
2017-11-25T05:12:59.784Z,14.50
2017-11-25T05:15:27.969Z,15.63
2017-11-25T05:17:56.184Z,14.27
2017-11-25T05:20:24.353Z,14.53
2017-11-25T05:22:52.524Z,14.40
2017-11-25T05:25:20.690Z,14.67
2017-11-25T05:27:49.636Z,14.80
2017-11-25T05:30:17.819Z,15.27
2017-11-25T05:32:45.992Z,16.00
2017-11-25T05:35:14.183Z,15.80
2017-11-25T05:37:43.121Z,14.73
2017-11-25T05:40:11.412Z,14.80
2017-11-25T05:42:39.628Z,15.00
2017-11-25T05:45:07.809Z,20.00
2017-11-25T05:47:36.756Z,22.10
2017-11-25T05:50:04.954Z,24.17
2017-11-25T05:52:33.155Z,24.43
2017-11-25T05:55:01.328Z,25.47
2017-11-25T05:57:29.504Z,25.10
2017-11-25T05:59:58.446Z,25.20
2017-11-25T06:02:26.621Z,23.00
2017-11-25T06:04:54.788Z,27.10
2017-11-25T06:07:22.953Z,24.80
2017-11-25T06:09:51.120Z,26.27
2017-11-25T06:12:19.305Z,26.70
2017-11-25T06:14:47.463Z,27.33
2017-11-25T06:17:15.635Z,27.33
2017-11-25T06:19:44.592Z,23.73
2017-11-25T06:22:12.772Z,22.37
2017-11-25T06:24:40.969Z,21.17
2017-11-25T06:27:09.925Z,20.93
2017-11-25T06:29:38.102Z,21.63
2017-11-25T06:32:06.309Z,21.30
2017-11-25T06:34:35.301Z,21.60
2017-11-25T06:37:04.269Z,22.30
2017-11-25T06:39:32.465Z,22.00
2017-11-25T06:42:01.443Z,19.63
2017-11-25T06:44:29.627Z,20.77
2017-11-25T06:46:57.858Z,20.80
2017-11-25T06:49:26.043Z,20.53
2017-11-25T06:51:54.217Z,19.57
2017-11-25T06:54:22.391Z,20.90
2017-11-25T06:56:50.593Z,21.93
2017-11-25T06:59:18.780Z,19.27
2017-11-25T07:01:47.724Z,38.07
2017-11-25T07:04:15.893Z,47.67
2017-11-25T07:06:44.059Z,45.60
2017-11-25T07:09:12.231Z,20.53
2017-11-25T07:11:40.407Z,18.53
2017-11-25T07:14:08.595Z,18.80
2017-11-25T07:16:36.790Z,24.87
2017-11-25T07:19:04.967Z,20.70
2017-11-25T07:21:33.144Z,38.13
2017-11-25T07:24:01.310Z,38.07
2017-11-25T07:26:29.476Z,17.70
2017-11-25T07:28:57.660Z,18.90
2017-11-25T07:31:25.852Z,16.27
2017-11-25T07:33:54.043Z,18.63
2017-11-25T07:36:22.243Z,18.17
2017-11-25T07:38:50.414Z,17.20
2017-11-25T07:41:18.588Z,18.43
2017-11-25T07:43:46.749Z,18.57
2017-11-25T07:46:15.709Z,18.20
2017-11-25T07:48:43.904Z,16.27
2017-11-25T07:51:12.067Z,17.07
2017-11-25T07:53:40.243Z,17.13
2017-11-25T07:56:08.423Z,17.47
2017-11-25T07:58:36.600Z,18.53
2017-11-25T08:01:04.784Z,18.43
2017-11-25T08:03:33.737Z,19.30
2017-11-25T08:06:01.910Z,23.92
2017-11-25T08:08:30.099Z,25.10
2017-11-25T08:10:58.297Z,28.70
2017-11-25T08:13:27.247Z,31.60
2017-11-25T08:15:55.415Z,28.70
2017-11-25T08:18:23.589Z,30.13
2017-11-25T08:20:51.767Z,28.90
2017-11-25T08:23:19.932Z,28.70
2017-11-25T08:25:48.116Z,28.10
2017-11-25T08:28:16.394Z,30.43
2017-11-25T08:30:44.615Z,32.23
2017-11-25T08:33:13.594Z,28.60
2017-11-25T08:35:41.789Z,27.57
2017-11-25T08:38:10.830Z,31.00
2017-11-25T08:40:39.016Z,26.80
2017-11-25T08:43:07.199Z,29.93
2017-11-25T08:45:35.378Z,27.63
2017-11-25T08:48:03.582Z,30.53
2017-11-25T08:50:32.526Z,28.20
2017-11-25T08:53:00.710Z,27.70
2017-11-25T08:55:28.879Z,30.23
2017-11-25T08:57:57.103Z,29.33
2017-11-25T09:00:26.041Z,30.10
2017-11-25T09:02:54.221Z,31.27
2017-11-25T09:05:22.392Z,33.93
2017-11-25T09:07:50.562Z,28.37
2017-11-25T09:10:18.818Z,29.43
2017-11-25T09:12:46.998Z,29.67
2017-11-25T09:15:15.196Z,30.00
2017-11-25T09:17:43.366Z,29.60
2017-11-25T09:20:11.559Z,35.00
2017-11-25T09:22:39.724Z,33.27
2017-11-25T09:25:07.900Z,30.03
2017-11-25T09:27:36.082Z,27.73
2017-11-25T09:30:04.291Z,29.10
2017-11-25T09:32:33.253Z,28.90
2017-11-25T09:35:01.434Z,27.70
2017-11-25T09:37:29.598Z,28.03
2017-11-25T09:39:57.762Z,28.33
2017-11-25T09:42:25.948Z,29.90
2017-11-25T09:44:54.196Z,30.30
2017-11-25T09:47:22.389Z,28.43
2017-11-25T09:49:50.590Z,29.20
2017-11-25T09:52:18.797Z,29.33
2017-11-25T09:54:47.773Z,28.17
2017-11-25T09:57:16.758Z,29.63
2017-11-25T09:59:44.934Z,29.63
2017-11-25T10:02:13.114Z,29.33
2017-11-25T10:04:42.063Z,28.60
2017-11-25T10:07:10.252Z,30.23
2017-11-25T10:09:38.454Z,31.47
2017-11-25T10:12:06.624Z,30.23
2017-11-25T10:14:34.807Z,30.67
2017-11-25T10:17:03.758Z,29.60
2017-11-25T10:19:31.944Z,30.53
2017-11-25T10:22:00.120Z,29.93
2017-11-25T10:24:28.285Z,31.70
2017-11-25T10:26:57.374Z,29.93
2017-11-25T10:29:25.548Z,30.43
2017-11-25T10:31:53.713Z,31.47
2017-11-25T10:34:21.882Z,28.90
2017-11-25T10:36:50.149Z,28.33
2017-11-25T10:39:18.323Z,30.70
2017-11-25T10:41:46.503Z,29.33
2017-11-25T10:44:14.667Z,32.10
2017-11-25T10:46:42.853Z,30.37
2017-11-25T10:49:11.045Z,28.30
2017-11-25T10:51:39.222Z,30.33
2017-11-25T10:54:07.390Z,28.13
2017-11-25T10:56:35.570Z,28.10
2017-11-25T10:59:03.754Z,28.60
2017-11-25T11:01:31.941Z,28.97
2017-11-25T11:04:00.172Z,29.60
2017-11-25T11:06:28.344Z,29.67
2017-11-25T11:08:56.530Z,31.40
2017-11-25T11:11:24.713Z,30.23
2017-11-25T11:13:52.904Z,30.00
2017-11-25T11:16:21.104Z,30.50
2017-11-25T11:18:49.300Z,30.87
2017-11-25T11:21:18.242Z,31.00
2017-11-25T11:23:46.407Z,28.53
2017-11-25T11:26:14.587Z,31.43
2017-11-25T11:28:42.771Z,29.90
2017-11-25T11:31:12.470Z,30.73
2017-11-25T11:33:40.639Z,29.73
2017-11-25T11:36:08.820Z,29.37
2017-11-25T11:38:36.987Z,26.20
2017-11-25T11:41:05.166Z,27.43
2017-11-25T11:43:33.356Z,29.80
2017-11-25T11:46:01.526Z,27.40
2017-11-25T11:48:29.682Z,27.00
2017-11-25T11:50:57.861Z,27.70
2017-11-25T11:53:26.047Z,24.93
2017-11-25T11:55:54.206Z,24.70
2017-11-25T11:58:22.383Z,26.63
2017-11-25T12:00:50.594Z,27.77
2017-11-25T12:03:18.780Z,27.53
2017-11-25T12:05:46.959Z,27.80
2017-11-25T12:08:15.912Z,27.30
2017-11-25T12:10:44.098Z,27.97
2017-11-25T12:13:12.296Z,29.13
2017-11-25T12:15:41.279Z,30.40
2017-11-25T12:18:09.466Z,29.20
2017-11-25T12:20:37.646Z,26.73
2017-11-25T12:23:06.584Z,27.60
2017-11-25T12:25:34.750Z,26.13
2017-11-25T12:28:02.939Z,26.53
2017-11-25T12:30:31.122Z,25.33
2017-11-25T12:32:59.296Z,26.10
2017-11-25T12:35:27.464Z,22.37
2017-11-25T12:37:55.650Z,25.40
2017-11-25T12:40:23.815Z,29.43
2017-11-25T12:42:51.989Z,27.00
2017-11-25T12:45:20.158Z,26.27
2017-11-25T12:47:48.331Z,25.67
2017-11-25T12:50:16.503Z,25.87
2017-11-25T12:52:44.664Z,27.00
2017-11-25T12:55:12.855Z,26.57
2017-11-25T12:57:41.021Z,26.07
2017-11-25T13:00:09.187Z,25.30
2017-11-25T13:02:37.352Z,27.10
2017-11-25T13:05:05.523Z,26.40
2017-11-25T13:07:34.494Z,26.30
2017-11-25T13:10:03.437Z,25.27
2017-11-25T13:12:32.337Z,27.17
2017-11-25T13:15:00.530Z,25.53
2017-11-25T13:17:28.696Z,26.03
2017-11-25T13:19:56.874Z,27.17
2017-11-25T13:22:25.043Z,26.50
2017-11-25T13:24:53.215Z,26.47
2017-11-25T13:27:21.410Z,27.27
2017-11-25T13:29:49.594Z,27.70
2017-11-25T13:32:17.766Z,27.27
2017-11-25T13:34:45.972Z,27.80
2017-11-25T13:37:14.912Z,28.10
2017-11-25T13:39:43.096Z,27.80
2017-11-25T13:42:11.351Z,27.73
2017-11-25T13:44:39.538Z,27.57
2017-11-25T13:47:07.785Z,30.83
2017-11-25T13:49:35.962Z,26.67
2017-11-25T13:52:04.130Z,25.63
2017-11-25T13:54:32.320Z,29.73
2017-11-25T13:57:00.507Z,27.30
2017-11-25T13:59:28.672Z,26.10
2017-11-25T14:01:56.877Z,26.03
2017-11-25T14:04:25.075Z,45.53
2017-11-25T14:06:54.035Z,36.00
2017-11-25T14:09:22.208Z,32.53
2017-11-25T14:11:50.380Z,26.97
2017-11-25T14:14:19.320Z,28.10
2017-11-25T14:16:48.253Z,27.73
2017-11-25T14:19:16.415Z,29.20
2017-11-25T14:21:44.591Z,29.13
2017-11-25T14:24:12.872Z,25.30
2017-11-25T14:26:41.055Z,30.13
2017-11-25T14:29:09.256Z,29.40
2017-11-25T14:31:37.425Z,31.03
2017-11-25T14:34:05.601Z,26.20
2017-11-25T14:36:33.760Z,27.27
2017-11-25T14:39:02.734Z,32.10
2017-11-25T14:41:30.902Z,29.40
2017-11-25T14:43:59.073Z,28.53
2017-11-25T14:46:27.234Z,27.57
2017-11-25T14:48:55.409Z,28.50
2017-11-25T14:51:23.601Z,26.00
2017-11-25T14:53:51.784Z,26.93
2017-11-25T14:56:19.959Z,26.10
2017-11-25T14:58:48.208Z,27.00
2017-11-25T15:01:16.384Z,25.77
2017-11-25T15:03:44.567Z,24.00
2017-11-25T15:06:12.792Z,25.50
2017-11-25T15:08:41.762Z,25.53
2017-11-25T15:11:10.008Z,23.50
2017-11-25T15:13:38.224Z,25.80
2017-11-25T15:16:07.216Z,25.50
2017-11-25T15:18:35.399Z,25.83
2017-11-25T15:21:03.640Z,27.27
2017-11-25T15:23:31.823Z,25.87
2017-11-25T15:26:00.027Z,25.13
2017-11-25T15:28:28.226Z,24.97
2017-11-25T15:30:57.164Z,26.93
2017-11-25T15:33:25.342Z,25.67
2017-11-25T15:35:53.535Z,24.63
2017-11-25T15:38:21.726Z,24.47
2017-11-25T15:40:49.911Z,22.93
2017-11-25T15:43:18.109Z,23.63
2017-11-25T15:45:47.103Z,23.87
2017-11-25T15:48:16.055Z,24.80
2017-11-25T15:50:44.272Z,22.83
2017-11-25T15:53:13.274Z,23.70
2017-11-25T15:55:41.449Z,23.80
2017-11-25T15:58:09.646Z,26.83
2017-11-25T16:00:37.847Z,25.00
2017-11-25T16:03:06.041Z,25.20
2017-11-25T16:05:34.225Z,27.80
2017-11-25T16:08:03.172Z,25.87
2017-11-25T16:10:31.382Z,27.70
2017-11-25T16:12:59.571Z,26.97
2017-11-25T16:15:28.512Z,27.23
2017-11-25T16:17:56.704Z,28.07
2017-11-25T16:20:24.902Z,26.77
2017-11-25T16:22:53.095Z,25.60
2017-11-25T16:25:22.038Z,24.63
2017-11-25T16:27:50.210Z,24.70
2017-11-25T16:30:18.379Z,22.90
2017-11-25T16:32:46.564Z,24.63
2017-11-25T16:35:14.743Z,23.83
2017-11-25T16:37:42.961Z,23.53
2017-11-25T16:40:11.899Z,23.10
2017-11-25T16:42:40.079Z,23.80
2017-11-25T16:45:08.450Z,22.17
2017-11-25T16:47:36.684Z,22.90
2017-11-25T16:50:05.633Z,21.80
2017-11-25T16:52:33.830Z,21.07
2017-11-25T16:55:02.944Z,22.87
2017-11-25T16:57:31.997Z,22.63
2017-11-25T17:00:00.192Z,21.87
2017-11-25T17:02:28.389Z,21.50
2017-11-25T17:04:57.336Z,21.87
2017-11-25T17:07:25.526Z,22.57
2017-11-25T17:09:53.716Z,22.73
2017-11-25T17:12:22.703Z,26.30
2017-11-25T17:14:50.906Z,24.50
2017-11-25T17:17:19.853Z,24.20
2017-11-25T17:19:48.034Z,23.77
2017-11-25T17:22:16.341Z,21.60
2017-11-25T17:24:45.287Z,23.10
2017-11-25T17:27:13.483Z,23.90
2017-11-25T17:29:41.711Z,20.43
2017-11-25T17:32:10.051Z,20.60
2017-11-25T17:34:38.234Z,19.90
2017-11-25T17:37:07.182Z,21.27
2017-11-25T17:39:35.368Z,21.17
2017-11-25T17:42:03.561Z,19.37
2017-11-25T17:44:31.850Z,19.07
2017-11-25T17:47:00.798Z,21.13
2017-11-25T17:49:28.992Z,23.03
2017-11-25T17:51:57.166Z,18.37
2017-11-25T17:54:25.337Z,19.63
2017-11-25T17:56:53.500Z,19.00
2017-11-25T17:59:21.667Z,18.10
2017-11-25T18:01:49.847Z,16.93
2017-11-25T18:04:18.020Z,18.23
2017-11-25T18:06:46.198Z,15.63
2017-11-25T18:09:14.376Z,16.30
2017-11-25T18:11:42.555Z,14.23
2017-11-25T18:14:11.499Z,12.50
2017-11-25T18:16:39.680Z,10.40
2017-11-25T18:19:07.870Z,8.80
2017-11-25T18:21:36.126Z,8.73
2017-11-25T18:24:05.401Z,11.17
2017-11-25T18:26:33.609Z,7.87
2017-11-25T18:29:01.832Z,7.80
2017-11-25T18:31:30.006Z,6.67
2017-11-25T18:33:58.189Z,8.00
2017-11-25T18:36:26.359Z,6.63
2017-11-25T18:38:54.523Z,5.80
2017-11-25T18:41:22.729Z,8.73
2017-11-25T18:43:51.793Z,7.57
2017-11-25T18:46:20.024Z,8.67
2017-11-25T18:48:48.216Z,11.60
2017-11-25T18:51:16.446Z,15.43
2017-11-25T18:53:44.640Z,10.00
2017-11-25T18:56:13.605Z,16.13
2017-11-25T18:58:41.819Z,13.93
2017-11-25T19:01:09.990Z,10.40
2017-11-25T19:03:38.180Z,10.20
2017-11-25T19:06:06.396Z,7.20
2017-11-25T19:08:34.627Z,8.03
2017-11-25T19:11:02.850Z,10.37
2017-11-25T19:13:31.030Z,11.07
2017-11-25T19:15:59.243Z,8.03
2017-11-25T19:18:27.490Z,4.17
2017-11-25T19:20:56.441Z,5.10
2017-11-25T19:23:24.720Z,8.00
2017-11-25T19:25:52.908Z,5.50
2017-11-25T19:28:21.109Z,4.80
2017-11-25T19:30:49.300Z,6.20
2017-11-25T19:33:18.278Z,8.10
2017-11-25T19:35:47.241Z,5.33
2017-11-25T19:38:15.463Z,8.27
2017-11-25T19:40:44.418Z,8.57
2017-11-25T19:43:12.604Z,4.80
2017-11-25T19:45:40.862Z,3.33
2017-11-25T19:48:09.035Z,4.45
2017-11-25T19:50:37.216Z,2.83
2017-11-25T19:53:06.187Z,2.47
2017-11-25T19:55:34.383Z,3.10
2017-11-25T19:58:02.572Z,1.50
2017-11-25T20:00:30.742Z,4.53
2017-11-25T20:02:58.956Z,1.57
2017-11-25T20:05:28.004Z,1.43
2017-11-25T20:07:56.182Z,1.40
2017-11-25T20:10:24.424Z,1.50
2017-11-25T20:12:52.660Z,1.10
2017-11-25T20:15:21.640Z,1.13
2017-11-25T20:17:49.817Z,0.97
2017-11-25T20:20:17.999Z,2.07
2017-11-25T20:22:46.199Z,0.87
2017-11-25T20:25:14.417Z,1.20
2017-11-25T20:27:42.615Z,0.83
2017-11-25T20:30:10.812Z,1.00
2017-11-25T20:32:39.819Z,1.37
2017-11-25T20:35:08.777Z,1.40
2017-11-25T20:37:37.019Z,1.70
2017-11-25T20:40:05.334Z,1.17
2017-11-25T20:42:33.578Z,2.23
2017-11-25T20:45:01.781Z,2.30
2017-11-25T20:47:29.996Z,1.37
2017-11-25T20:49:58.188Z,1.67
2017-11-25T20:52:26.432Z,3.20
2017-11-25T20:54:55.369Z,2.57
2017-11-25T20:57:23.545Z,4.80
2017-11-25T20:59:51.801Z,8.73
2017-11-25T21:02:19.971Z,3.30
2017-11-25T21:04:48.173Z,7.80
2017-11-25T21:07:16.368Z,5.60
2017-11-25T21:09:44.572Z,2.67
2017-11-25T21:12:13.569Z,4.83
2017-11-25T21:14:42.548Z,3.77
2017-11-25T21:17:11.552Z,1.70
2017-11-25T21:19:40.553Z,1.70
2017-11-25T21:22:11.233Z,3.27
2017-11-25T21:24:39.472Z,1.57
2017-11-25T21:27:07.750Z,2.80
2017-11-25T21:29:36.480Z,2.00
2017-11-25T21:32:05.160Z,1.00
2017-11-25T21:34:33.837Z,2.47
2017-11-25T21:37:02.750Z,3.70
2017-11-25T21:39:30.990Z,1.73
2017-11-25T21:41:59.177Z,1.50
2017-11-25T21:44:27.390Z,2.30
2017-11-25T21:46:55.640Z,3.97
2017-11-25T21:49:24.508Z,7.57
2017-11-25T21:51:53.167Z,2.50
2017-11-25T21:54:22.142Z,2.90
2017-11-25T21:56:50.362Z,2.27
2017-11-25T21:59:18.554Z,2.17
2017-11-25T22:01:46.721Z,5.00
2017-11-25T22:04:14.981Z,5.60
2017-11-25T22:06:43.167Z,1.60
2017-11-25T22:09:11.327Z,2.30
2017-11-25T22:11:39.497Z,3.80
2017-11-25T22:14:07.712Z,3.30
2017-11-25T22:16:35.884Z,1.40
2017-11-25T22:19:04.083Z,1.03
2017-11-25T22:21:32.283Z,3.13
2017-11-25T22:24:01.254Z,0.90
2017-11-25T22:26:29.474Z,2.60
2017-11-25T22:28:57.661Z,4.43
2017-11-25T22:31:25.908Z,3.40
2017-11-25T22:33:54.949Z,1.40
2017-11-25T22:36:23.223Z,1.90
2017-11-25T22:38:51.451Z,4.00
2017-11-25T22:41:20.484Z,1.20
2017-11-25T22:43:48.712Z,1.23
2017-11-25T22:46:17.702Z,0.60
2017-11-25T22:48:45.879Z,0.70
2017-11-25T22:51:14.887Z,0.53
2017-11-25T22:53:43.895Z,0.50
2017-11-25T22:56:12.227Z,2.93
2017-11-25T22:58:40.412Z,0.90
2017-11-25T23:01:08.779Z,0.67
2017-11-25T23:03:36.978Z,0.40
2017-11-25T23:06:11.012Z,0.60
2017-11-25T23:08:39.235Z,0.50
2017-11-25T23:11:07.513Z,1.00
2017-11-25T23:13:35.717Z,2.40
2017-11-25T23:16:04.854Z,2.30
2017-11-25T23:18:33.075Z,0.93
2017-11-25T23:21:01.335Z,0.67
2017-11-25T23:23:29.576Z,0.97
2017-11-25T23:25:57.836Z,0.80
2017-11-25T23:28:26.116Z,0.57
2017-11-25T23:30:54.355Z,0.50
2017-11-25T23:33:22.553Z,0.70
2017-11-25T23:35:51.532Z,1.07
2017-11-25T23:38:19.772Z,2.23
2017-11-25T23:40:47.993Z,2.80
2017-11-25T23:43:17.053Z,3.20
2017-11-25T23:45:45.271Z,1.27
2017-11-25T23:48:14.238Z,0.70
2017-11-25T23:50:42.510Z,1.03
2017-11-25T23:53:10.788Z,0.87
2017-11-25T23:55:39.025Z,1.30
2017-11-25T23:58:07.313Z,1.70
